TimePDT,TemperatureF,Dew PointF,Humidity,Sea Level PressureIn,VisibilityMPH,Wind Direction,Wind SpeedMPH,Gust SpeedMPH,PrecipitationIn,Events,Conditions,WindDirDegrees,DateUTC
12:53 AM,59.0,46.9,64,30.05,10.0,NNW,3.5,-,N/A,,Clear,330,2013-06-15 07:53:00
1:53 AM,55.9,48.9,77,30.03,10.0,NW,3.5,-,N/A,,Clear,320,2013-06-15 08:53:00
2:53 AM,55.9,48.9,77,30.02,10.0,Calm,Calm,-,N/A,,Clear,0,2013-06-15 09:53:00
3:53 AM,55.0,48.0,77,30.01,10.0,Calm,Calm,-,N/A,,Clear,0,2013-06-15 10:53:00
4:53 AM,55.0,48.0,77,30.00,10.0,Calm,Calm,-,N/A,,Clear,0,2013-06-15 11:53:00
5:53 AM,55.0,48.0,77,29.99,10.0,Calm,Calm,-,N/A,,Partly Cloudy,0,2013-06-15 12:53:00
6:53 AM,55.9,48.9,77,29.99,10.0,Variable,3.5,-,N/A,,Scattered Clouds,0,2013-06-15 13:53:00
7:53 AM,59.0,50.0,72,29.99,10.0,NNE,3.5,-,N/A,,Scattered Clouds,20,2013-06-15 14:53:00
8:53 AM,62.1,48.0,60,29.98,10.0,Variable,3.5,-,N/A,,Scattered Clouds,0,2013-06-15 15:53:00
9:53 AM,64.0,48.9,58,29.98,10.0,NW,9.2,-,N/A,,Scattered Clouds,310,2013-06-15 16:53:00
10:53 AM,64.9,48.9,56,29.96,10.0,WNW,8.1,-,N/A,,Scattered Clouds,290,2013-06-15 17:53:00
11:53 AM,66.9,50.0,54,29.96,10.0,WNW,8.1,-,N/A,,Scattered Clouds,300,2013-06-15 18:53:00
12:53 PM,69.1,50.0,51,29.95,10.0,WNW,9.2,-,N/A,,Clear,300,2013-06-15 19:53:00
1:53 PM,72.0,50.0,46,29.94,10.0,WNW,9.2,17.3,N/A,,Scattered Clouds,290,2013-06-15 20:53:00
2:53 PM,73.0,46.9,39,29.94,10.0,NW,6.9,-,N/A,,Partly Cloudy,310,2013-06-15 21:53:00
3:53 PM,73.9,46.9,38,29.93,10.0,WNW,5.8,-,N/A,,Partly Cloudy,300,2013-06-15 22:53:00
4:53 PM,73.9,46.9,38,29.93,10.0,West,6.9,-,N/A,,Clear,280,2013-06-15 23:53:00
5:53 PM,73.9,48.0,40,29.93,10.0,Variable,5.8,-,N/A,,Partly Cloudy,0,2013-06-16 00:53:00
6:53 PM,73.9,46.0,37,29.93,10.0,WNW,5.8,-,N/A,,Partly Cloudy,300,2013-06-16 01:53:00
7:53 PM,72.0,46.0,40,29.94,10.0,NW,6.9,-,N/A,,Clear,320,2013-06-16 02:53:00
8:53 PM,70.0,48.0,46,29.95,10.0,NNW,4.6,-,N/A,,Clear,330,2013-06-16 03:53:00
9:53 PM,68.0,48.0,49,29.97,10.0,Calm,Calm,-,N/A,,Clear,0,2013-06-16 04:53:00
10:53 PM,66.0,48.0,52,29.98,10.0,Calm,Calm,-,N/A,,Clear,0,2013-06-16 05:53:00
11:53 PM,64.9,48.0,54,30.00,10.0,Calm,Calm,-,N/A,,Clear,0,2013-06-16 06:53:00